Kuujjuaq Airport, Quebec

Past 24 Hour Conditions

This table is a summary of hourly weather conditions for the past 24 hours. This summary includes the following parameters: temperature, humidity, dew point, wind speed and direction, air pressure, visibility and/or wind chill and humidex.
Date / Time
(EDT)
Conditions Temp (°C) Humidity (%) Dew Point (°C) Wind (km/h) Pressure (kPa) Vis (km) Wind Chill
23 April 2014
6:00 Light Snow -10 90 -11 NNW 16 101.7 19 -17
5:00 Light Snow -9 89 -10 N 14 101.7 24 -15
4:00 Light Snow -8 87 -10 NNE 11 101.6 24 -13
3:00 Light Snow -9 85 -11 N 9 101.6 24 -14
2:00 Light Snow -7 85 -10 NE 10 101.5 24 -12
1:00 Light Snow -7 86 -9 NNE 8 101.5 24 -11
00:00 Light Snow -7 85 -9 NNE 11 101.5 24 -12
22 April 2014
23:00 Light Snow -7 85 -9 NE 15 101.5 24 -13
22:00 Cloudy -7 86 -9 NE 15 101.5 24 -13
21:00 Cloudy -7 84 -10 NE 15 101.5 24 -13
20:00 Mostly Cloudy -7 83 -10 NNE 9 101.4 24 -12
19:00 Mainly Sunny -6 80 -9 NE 14 101.4 24 -12
18:00 Mainly Sunny -5   74 -9 NNE 17 101.3 24 -12
17:00 Mainly Sunny -5   65 -10 NNE 16 101.3 24 -10
16:00 Partly Cloudy -5   63 -11 NE 11 101.2 24 -9
15:00 Mainly Sunny -5   66 -10 NNE 13 101.2 24 -10
14:00 Partly Cloudy -5   67 -11 NNE 8 101.2 24 -9
13:00 Mostly Cloudy -7 84 -9 NNE 8 101.2 24 -11
12:00 Mostly Cloudy -8 89 -10 NE 7 101.2 24 -12
11:00 Mostly Cloudy -9 89 -11 ENE 7 101.2 24 -13
10:00 Ice Crystals -11 87 -13 N 2 101.2 24 -12
9:00 Light Snow -13 86 -14 S 6 101.2 19 -16
8:00 Light Snow -14 85 -16 N 3 101.3 4 -16
7:00 Light Snow -15   85 -17 S 10 101.2 3 -21
6:00 Light Snow -14 85 -16 SSW 8 101.2 2 -20
N/A
Not available
 ↑ 
Highest temperature
 ↓ 
Lowest temperature
*
Value not significant.

If you require additional historical weather information, please visit Climate Data Online.